Marion, Ohio
Current Conditions -  °F | °C
As of 7:53 PM on Monday 20 Oct 2014 (Local Time) from KMNN Reporting Station
Overcast Overcast  
Wind Chill: 53°   Ceiling: 3800
Heat Index: 53°   Visibility: 7mi
Dew Point: 50°   Wind: 7mph
Humidity: 89%   Direction: 220°SW
Pressure: 29.86"   Gusts: NA
Location:  40.58°N, 83.13°W
Report Text: KMNN 202353Z AUTO 22006KT 7SM FEW023 SCT027 OVC038 12/10 A2986 RMK AO2 SLP115 60018 T01170100 10150 20117 53008 TSNO
Loading
Personal Weather Stations






























Interactive Weather Map
Tropical Storm Tracking
New forecast layout! Learn more

10-Day Weather Forecast

Advertisements
Track Severe Weather on mobile